Avon, Indiana
Current Conditions -  °F | °C
As of 2:53 AM on Friday 31 Oct 2014 (Local Time) from KEYE Reporting Station
Clear Clear  
Wind Chill:   Ceiling: Unl
Heat Index:   Visibility: 10mi
Dew Point:   Wind: 6mph
Humidity: 73%   Direction: 310°NW
Pressure: 30.01"   Gusts: NA
Location:  39.76°N, 86.4°W
Report Text: KEYE 310653Z AUTO 31005KT 10SM CLR 08/03 A3001 RMK AO2 SLP165 T00780033
Loading
Personal Weather Stations






























Interactive Weather Map
Tropical Storm Tracking
New forecast layout! Learn more

10-Day Weather Forecast

Advertisements
Track Severe Weather on mobile